Latest Weather Observations for Montague Island

IDN60901

Issued at 10:31 am EST Thursday 21 June 2018 (issued every 10 minutes, with the page automatically refreshed every 10 minutes)

About weather observations | Map of Canberra area stations | Latest observations for Canberra area | Other Formats
Station Details ID: 069017 Name: MONTAGUE ISLAND LIGHTHOUSE Lat: -36.25 Lon: 150.23 Height: 52.0 m
Data from the previous 72 hours. | See also: Recent months at Montague Island
Date/Time
EST
Temp
°C
App
Temp
°C
Dew
Point
°C
Rel
Hum
%
Delta-T
°C
Wind Press
QNH
hPa
Press
MSL
hPa
Rain since
9am
mm
Dir  Spd
km/h
Gust
km/h
Spd
kts
Gust
kts
21/10:30am 14.7 13.9 8.0 64 3.3 W 2 6 1 3 1028.3 1028.3 0.0
21/10:00am 13.5 12.6 7.9 69 2.8 W 2 4 1 2 1028.4 1028.4 0.0
21/09:30am 13.2 12.1 8.3 72 2.4 W 4 6 2 3 1028.4 1028.4 0.0
21/09:00am 12.3 10.2 8.2 76 2.0 W 9 13 5 7 1028.3 1028.3 0.0
21/08:30am 11.6 9.7 7.7 77 1.9 W 7 9 4 5 1028.0 1028.0 0.0
21/08:00am 10.8 8.9 7.7 81 1.5 W 7 9 4 5 1027.9 1027.9 0.0
21/07:30am 9.7 6.5 7.0 83 1.3 W 13 15 7 8 1027.9 1027.9 0.0
21/07:00am 9.8 6.3 7.1 83 1.3 W 15 19 8 10 1027.6 1027.6 0.0
21/06:30am 10.1 7.4 7.2 82 1.4 W 11 13 6 7 1027.3 1027.3 0.0
21/06:00am 9.9 6.4 7.0 82 1.4 W 15 17 8 9 1027.0 1027.0 0.0
21/05:30am 10.4 7.4 7.6 83 1.3 W 13 15 7 8 1026.9 1026.9 0.0
21/05:00am 10.3 6.8 7.4 82 1.4 W 15 19 8 10 1026.7 1026.7 0.0
21/04:30am 10.7 7.7 7.9 83 1.4 W 13 17 7 9 1026.6 1026.6 0.0
21/04:00am 11.0 9.3 8.2 83 1.4 W 7 11 4 6 1026.6 1026.6 0.0
21/03:30am 11.3 9.7 8.9 85 1.2 W 7 11 4 6 1026.7 1026.7 0.0
21/03:00am 11.5 9.6 9.1 85 1.2 WSW 9 13 5 7 1026.9 1026.9 0.0
21/02:30am 11.6 9.8 9.5 87 1.1 WSW 9 11 5 6 1027.1 1027.1 0.0
21/02:00am 11.7 9.5 9.3 85 1.2 W 11 13 6 7 1027.1 1027.1 0.0
21/01:30am 11.8 9.6 9.2 84 1.3 W 11 13 6 7 1026.9 1026.9 0.0
21/01:00am 11.4 8.7 9.0 85 1.2 W 13 17 7 9 1027.0 1027.0 0.0
21/12:30am 10.9 7.7 8.5 85 1.2 W 15 20 8 11 1027.2 1027.2 0.0
21/12:00am 11.1 8.7 8.7 85 1.2 W 11 15 6 8 1027.4 1027.4 0.0
 
Date/Time
EST
Temp
°C
App
Temp
°C
Dew
Point
°C
Rel
Hum
%
Delta-T
°C
Wind Press
QNH
hPa
Press
MSL
hPa
Rain since
9am
mm
Dir  Spd
km/h
Gust
km/h
Spd
kts
Gust
kts
20/11:30pm 12.1 10.7 9.5 84 1.3 W 7 9 4 5 1027.5 1027.5 0.0
20/11:00pm 12.1 10.6 9.3 83 1.4 W 7 9 4 5 1027.6 1027.6 0.0
20/10:30pm 11.9 10.1 9.5 85 1.2 W 9 11 5 6 1027.7 1027.7 0.0
20/10:00pm 12.1 10.3 9.5 84 1.3 W 9 9 5 5 1027.7 1027.7 0.0
20/09:30pm 12.3 10.9 9.5 83 1.4 W 7 9 4 5 1028.0 1028.0 0.0
20/09:00pm 12.4 10.5 9.1 80 1.7 W 9 11 5 6 1028.1 1028.1 0.0
20/08:30pm 12.9 11.3 8.8 76 2.1 W 7 9 4 5 1028.1 1028.1 0.0
20/08:00pm 14.0 13.0 7.5 65 3.2 SE 2 4 1 2 1028.1 1028.1 0.0
20/07:30pm 14.3 13.6 7.1 62 3.5 CALM 0 6 0 3 1028.0 1028.0 0.0
20/07:00pm 14.4 13.4 7.5 63 3.4 ESE 2 6 1 3 1027.8 1027.8 0.0
20/06:30pm 14.4 12.7 7.5 63 3.4 SSE 6 9 3 5 1027.7 1027.7 0.0
20/06:00pm 14.4 13.4 7.5 63 3.4 S 2 6 1 3 1027.6 1027.6 0.0
20/05:30pm 13.9 12.5 7.4 65 3.2 SW 4 6 2 3 1027.5 1027.5 0.0
20/05:00pm 14.1 12.5 7.9 66 3.1 S 6 9 3 5 1027.4 1027.4 0.0
20/04:30pm 14.5 12.9 8.7 68 2.9 S 7 13 4 7 1027.5 1027.5 0.0
20/04:00pm 14.7 12.1 9.3 70 2.8 S 13 19 7 10 1027.6 1027.6 0.0
20/03:30pm 14.4 12.3 8.1 66 3.2 SSW 9 15 5 8 1027.6 1027.6 0.0
20/03:00pm 14.4 11.9 8.1 66 3.1 SSW 11 15 6 8 1027.5 1027.5 0.0
20/02:30pm 15.0 12.6 8.5 65 3.3 SSW 11 15 6 8 1027.4 1027.4 0.0
20/02:00pm 15.3 12.8 8.3 63 3.5 SW 11 15 6 8 1027.5 1027.5 0.0
20/01:30pm 15.2 12.1 8.9 66 3.2 SSW 15 17 8 9 1027.6 1027.6 0.0
20/01:00pm 15.3 12.2 9.0 66 3.2 SW 15 20 8 11 1027.7 1027.7 0.0
20/12:30pm 15.4 11.4 8.9 65 3.3 SW 20 24 11 13 1027.9 1027.9 0.0
20/12:00pm 15.2 11.5 9.6 69 2.9 SW 19 24 10 13 1028.4 1028.4 0.0
20/11:30am 14.5 10.8 9.5 72 2.6 SW 19 24 10 13 1028.8 1028.8 0.0
20/11:00am 15.5 11.9 10.5 72 2.6 SW 20 24 11 13 1029.0 1029.0 0.0
20/10:30am 14.4 11.3 10.2 76 2.2 SW 17 24 9 13 1029.2 1029.2 0.0
20/10:00am 14.3 10.1 9.7 74 2.4 WSW 22 28 12 15 1029.3 1029.3 0.0
20/09:30am 14.9 11.5 11.1 78 2.0 WSW 20 26 11 14 1029.1 1029.1 0.0
20/09:00am 13.7 10.2 10.3 80 1.8 WSW 19 24 10 13 1028.7 1028.7 22.6
20/08:30am 14.1 11.1 10.7 80 1.8 WSW 17 20 9 11 1028.3 1028.3 22.6
20/08:00am 13.6 12.4 10.4 81 1.7 SW 7 11 4 6 1027.9 1027.9 22.6
20/07:30am 12.8 10.7 9.8 82 1.5 WSW 11 15 6 8 1028.0 1028.0 22.6
20/07:00am 12.6 10.1 9.8 83 1.4 SW 13 19 7 10 1027.9 1027.9 22.6
20/06:30am 12.6 9.7 9.8 83 1.4 SW 15 20 8 11 1028.1 1028.1 22.6
20/06:00am 12.7 9.1 9.9 83 1.4 WSW 19 22 10 12 1028.1 1028.1 22.6
20/05:30am 13.0 9.8 10.0 82 1.5 S 17 26 9 14 1028.1 1028.1 22.6
20/05:00am 13.3 8.9 10.3 82 1.5 SSE 24 32 13 17 1028.1 1028.1 22.6
20/04:30am 12.8 8.7 10.0 83 1.4 SSW 22 30 12 16 1028.2 1028.2 22.6
20/04:00am 13.0 7.7 10.0 82 1.5 SW 28 35 15 19 1028.2 1028.2 22.6
20/03:30am 13.0 7.4 10.2 83 1.4 WSW 30 37 16 20 1028.3 1028.3 22.6
20/03:00am 13.0 7.5 10.4 84 1.3 SW 30 37 16 20 1028.3 1028.3 22.6
20/02:30am 12.9 6.8 10.4 85 1.3 SW 33 39 18 21 1027.8 1027.8 22.6
20/02:00am 12.9 7.0 10.4 85 1.3 SW 32 41 17 22 1027.6 1027.6 22.6
20/01:30am 12.7 7.2 10.6 87 1.1 SW 30 39 16 21 1027.4 1027.4 22.6
20/01:00am 12.7 6.7 10.8 88 1.0 SW 33 39 18 21 1027.2 1027.2 22.6
20/12:30am 12.5 6.5 10.9 90 0.8 SW 33 43 18 23 1027.1 1027.1 22.6
20/12:00am 12.5 6.6 11.1 91 0.7 SW 33 39 18 21 1026.9 1026.9 22.6
 
Date/Time
EST
Temp
°C
App
Temp
°C
Dew
Point
°C
Rel
Hum
%
Delta-T
°C
Wind Press
QNH
hPa
Press
MSL
hPa
Rain since
9am
mm
Dir  Spd
km/h
Gust
km/h
Spd
kts
Gust
kts
19/11:30pm 12.4 7.4 11.0 91 0.7 SW 28 37 15 20 1027.0 1027.0 22.6
19/11:00pm 12.4 7.1 11.1 92 0.7 SW 30 37 16 20 1027.2 1027.2 22.6
19/10:30pm 12.5 6.8 11.1 91 0.7 SW 32 39 17 21 1027.4 1027.4 22.6
19/10:00pm 12.8 6.7 11.7 93 0.6 SW 35 44 19 24 1027.1 1027.1 22.6
19/09:30pm 12.5 5.9 11.4 93 0.6 SW 37 46 20 25 1027.0 1027.0 22.6
19/09:00pm 12.4 6.8 11.5 94 0.5 SW 32 41 17 22 1027.4 1027.4 22.4
19/08:32pm 12.8 6.7 11.9 94 0.5 SW 35 56 19 30 1027.1 1027.1 22.2
19/08:30pm 12.7 6.6 11.8 94 0.5 SW 35 44 19 24 1027.3 1027.3 22.2
19/08:00pm 12.7 5.5 11.8 94 0.5 SW 41 48 22 26 1027.2 1027.2 21.6
19/07:30pm 12.4 8.0 11.8 96 0.3 SW 26 46 14 25 1027.1 1027.1 21.4
19/07:00pm 12.1 5.6 11.6 97 0.3 SW 37 50 20 27 1027.0 1027.0 20.8
19/06:30pm 12.6 6.2 12.1 97 0.3 SW 37 46 20 25 1026.6 1026.6 20.4
19/06:00pm 12.8 6.5 12.3 97 0.3 SW 37 46 20 25 1026.2 1026.2 19.8
19/05:30pm 12.4 6.4 12.1 98 0.2 SW 35 46 19 25 1025.8 1025.8 19.4
19/05:00pm 12.3 5.1 12.0 98 0.2 SW 41 56 22 30 1025.5 1025.5 17.6
19/04:57pm 12.3 5.1 12.0 98 0.2 SW 41 61 22 33 1025.6 1025.6 17.6
19/04:30pm 11.8 3.9 11.3 97 0.3 SW 44 57 24 31 1025.3 1025.3 16.4
19/04:07pm 12.4 6.3 11.9 97 0.3 SW 35 56 19 30 1025.1 1025.1 15.0
19/04:00pm 12.7 5.1 11.9 95 0.4 SW 43 56 23 30 1025.1 1025.1 11.8
19/03:38pm 13.8 5.2 11.7 87 1.1 SW 48 67 26 36 1024.5 1024.5 4.6
19/03:30pm 13.9 6.0 11.6 86 1.2 SW 44 57 24 31 1024.6 1024.6 4.0
19/03:00pm 14.3 7.0 11.6 84 1.4 SSW 41 54 22 29 1024.3 1024.3 4.0
19/02:30pm 14.4 6.7 11.4 82 1.6 S 43 54 23 29 1024.4 1024.4 4.0
19/02:00pm 13.8 7.3 11.8 88 1.1 S 37 50 20 27 1024.3 1024.3 4.0
19/01:38pm 13.7 6.8 11.6 87 1.1 SSW 39 63 21 34 1024.2 1024.2 3.6
19/01:37pm 13.7 6.9 11.8 88 1.0 SSW 39 54 21 29 1024.3 1024.3 3.6
19/01:30pm 14.1 7.9 12.7 91 0.8 SSW 37 54 20 29 1024.2 1024.2 3.6
19/01:00pm 13.6 6.6 12.5 93 0.6 SSW 41 57 22 31 1024.5 1024.5 3.6
19/12:45pm 12.9 5.3 12.3 96 0.3 S 44 67 24 36 1024.6 1024.6 3.6
19/12:40pm 12.5 5.2 11.6 94 0.5 S 41 67 22 36 1024.5 1024.5 3.6
19/12:30pm 12.1 4.2 11.3 95 0.4 S 44 61 24 33 1024.5 1024.5 3.2
19/12:27pm 11.9 3.0 10.5 91 0.7 SSW 48 61 26 33 1024.7 1024.7 3.0
19/12:04pm 13.6 5.7 11.5 87 1.1 SSW 44 67 24 36 1024.5 1024.5 0.6
19/12:00pm 13.1 4.6 10.6 85 1.3 SSW 46 59 25 32 1024.6 1024.6 0.6
19/11:30am 14.0 6.1 11.3 84 1.4 SW 44 57 24 31 1024.8 1024.8 0.4
19/11:13am 13.0 5.4 10.5 85 1.3 SSW 41 59 22 32 1025.0 1025.0 0.4
19/11:00am 13.2 4.8 9.8 80 1.7 SSW 44 56 24 30 1024.9 1024.9 0.4
19/10:30am 13.5 5.3 10.5 82 1.6 SW 44 59 24 32 1024.9 1024.9 0.4
19/10:11am 13.6 5.0 10.2 80 1.8 SW 46 65 25 35 1024.8 1024.8 0.2
19/10:00am 13.1 4.4 9.9 81 1.6 SW 46 61 25 33 1024.6 1024.6 0.2
19/09:30am 12.7 3.2 9.7 82 1.5 SW 50 61 27 33 1024.5 1024.5 0.2
19/09:00am 12.4 2.6 10.0 85 1.2 SW 52 67 28 36 1024.2 1024.2 1.8
19/08:31am 12.1 2.0 9.1 82 1.5 SW 52 70 28 38 1023.8 1023.8 1.8
19/08:30am 12.1 1.7 9.3 83 1.4 SW 54 70 29 38 1023.8 1023.8 1.8
19/08:00am 11.9 1.3 8.6 80 1.6 SW 54 69 29 37 1023.5 1023.5 1.6
19/07:30am 12.1 1.8 8.2 77 1.9 SW 52 67 28 36 1023.0 1023.0 1.6
19/07:00am 12.2 1.6 8.5 78 1.8 SW 54 72 29 39 1022.9 1022.9 1.6
19/06:31am 11.9 0.8 8.2 78 1.8 SW 56 74 30 40 1022.3 1022.3 1.6
19/06:30am 11.9 0.8 8.2 78 1.8 SW 56 69 30 37 1022.4 1022.4 1.6
19/06:14am 11.8 1.9 8.3 79 1.7 SW 50 69 27 37 1022.3 1022.3 1.6
19/06:00am 11.9 0.8 8.2 78 1.8 SW 56 70 30 38 1022.1 1022.1 1.6
19/05:30am 11.9 0.2 8.0 77 1.9 SW 59 72 32 39 1021.5 1021.5 1.6
19/05:00am 11.3 0.2 7.8 79 1.7 SW 56 70 30 38 1021.4 1021.4 1.6
19/04:30am 11.8 1.5 8.3 79 1.7 SW 52 65 28 35 1021.4 1021.4 1.6
19/04:00am 11.4 1.1 8.1 80 1.6 SW 52 63 28 34 1021.5 1021.5 1.4
19/03:30am 11.7 0.7 8.4 80 1.6 SW 56 67 30 36 1021.4 1021.4 1.2
19/03:00am 11.6 0.9 7.9 78 1.8 SW 54 69 29 37 1021.6 1021.6 1.2
19/02:30am 11.3 0.5 7.8 79 1.7 SW 54 70 29 38 1021.0 1021.0 1.2
19/02:00am 10.8 -0.5 7.9 82 1.4 SW 57 70 31 38 1021.3 1021.3 0.8
19/01:37am 11.6 0.9 7.9 78 1.8 SW 54 72 29 39 1021.2 1021.2 0.4
19/01:30am 11.9 1.1 7.8 76 2.0 SW 54 69 29 37 1021.3 1021.3 0.2
19/01:00am 11.4 0.3 7.9 79 1.7 SW 56 69 30 37 1021.1 1021.1 0.2
19/12:30am 11.7 1.0 8.0 78 1.8 SW 54 69 29 37 1021.2 1021.2 0.0
19/12:00am 11.7 0.4 7.2 74 2.2 SW 56 69 30 37 1020.7 1020.7 0.0
 
Date/Time
EST
Temp
°C
App
Temp
°C
Dew
Point
°C
Rel
Hum
%
Delta-T
°C
Wind Press
QNH
hPa
Press
MSL
hPa
Rain since
9am
mm
Dir  Spd
km/h
Gust
km/h
Spd
kts
Gust
kts
18/11:30pm 11.5 -0.4 7.2 75 2.1 SW 59 72 32 39 1020.5 1020.5 0.0
18/11:08pm 11.4 0.9 7.3 76 2.0 SW 52 74 28 40 1020.6 1020.6 0.0
18/11:00pm 11.1 1.0 7.2 77 1.9 SW 50 65 27 35 1021.1 1021.1 0.0
18/10:30pm 10.6 0.9 7.3 80 1.6 SW 48 59 26 32 1021.0 1021.0 0.0
18/10:00pm 10.7 -0.1 7.6 81 1.5 SW 54 69 29 37 1021.0 1021.0 0.0
18/09:30pm 10.4 0.3 7.5 82 1.4 WSW 50 63 27 34 1020.6 1020.6 0.0
18/09:00pm 10.5 -0.8 7.9 84 1.3 SW 57 70 31 38 1020.6 1020.6 0.0
18/08:37pm 10.7 0.3 7.8 82 1.4 SW 52 74 28 40 1020.7 1020.7 0.0
18/08:30pm 10.7 0.7 7.8 82 1.4 SW 50 63 27 34 1020.8 1020.8 0.0
18/08:00pm 10.9 -2.0 7.6 80 1.6 SW 65 80 35 43 1020.5 1020.5 0.0
18/07:51pm 11.4 -0.1 7.3 76 2.0 SW 57 78 31 42 1020.6 1020.6 0.0
18/07:30pm 11.7 0.1 6.8 72 2.3 SW 57 70 31 38 1020.5 1020.5 0.0
18/07:10pm 11.9 0.9 6.6 70 2.5 SW 54 76 29 41 1020.1 1020.1 0.0
18/07:00pm 11.9 0.8 6.4 69 2.6 SW 54 69 29 37 1020.0 1020.0 0.0
18/06:30pm 11.8 1.5 6.5 70 2.5 SW 50 65 27 35 1019.6 1019.6 0.0
18/06:11pm 12.0 1.4 6.9 71 2.4 SW 52 70 28 38 1019.4 1019.4 0.0
18/06:00pm 12.0 0.0 6.5 69 2.6 SW 59 72 32 39 1019.2 1019.2 0.0
18/05:36pm 12.0 1.0 6.7 70 2.5 SW 54 72 29 39 1019.2 1019.2 0.0
18/05:30pm 12.1 0.8 7.0 71 2.5 SW 56 72 30 39 1019.3 1019.3 0.0
18/05:01pm 12.0 1.8 8.7 80 1.6 SW 52 70 28 38 1018.8 1018.8 0.0
18/05:00pm 11.9 1.3 8.6 80 1.6 SW 54 70 29 38 1018.9 1018.9 0.0
18/04:32pm 12.3 1.5 9.1 81 1.6 SW 56 76 30 41 1018.4 1018.4 0.0
18/04:30pm 12.3 1.5 9.1 81 1.6 SW 56 69 30 37 1018.4 1018.4 0.0
18/04:00pm 12.6 1.7 8.9 78 1.9 SW 56 76 30 41 1018.2 1018.2 0.0
18/03:33pm 13.0 0.5 9.1 77 2.0 SSW 65 85 35 46 1017.3 1017.3 0.0
18/03:30pm 13.0 0.8 8.9 76 2.1 SSW 63 80 34 43 1017.5 1017.5 0.0
18/03:11pm 13.0 2.7 9.6 80 1.7 SSW 54 72 29 39 1017.5 1017.5 0.0
18/03:00pm 12.8 2.3 10.3 85 1.3 S 56 69 30 37 1017.8 1017.8 0.0
18/02:36pm 13.1 0.9 9.0 76 2.1 SSW 63 83 34 45 1017.5 1017.5 0.0
18/02:30pm 13.5 0.9 8.8 73 2.4 SSW 65 78 35 42 1017.3 1017.3 0.0
18/02:04pm 13.9 2.4 8.5 70 2.7 SSW 59 80 32 43 1017.0 1017.0 0.0
18/02:00pm 14.0 2.5 8.8 71 2.6 SSW 59 76 32 41 1016.9 1016.9 0.0
18/01:33pm 14.3 2.8 8.5 68 2.9 SSW 59 78 32 42 1016.6 1016.6 0.0
18/01:30pm 14.5 3.3 8.2 66 3.2 SSW 57 70 31 38 1016.6 1016.6 0.0
18/01:00pm 14.8 4.1 8.1 64 3.4 SSW 54 67 29 36 1016.9 1016.9 0.0
18/12:30pm 15.0 5.1 8.3 64 3.4 SW 50 72 27 39 1016.9 1016.9 0.0
18/12:25pm 14.8 4.8 7.8 63 3.5 SSW 50 72 27 39 1016.7 1016.7 0.0
18/12:00pm 14.6 4.7 8.3 66 3.2 SSW 50 65 27 35 1017.1 1017.1 0.0
18/11:30am 13.8 4.3 8.4 70 2.7 SW 48 72 26 39 1017.3 1017.3 0.0
18/11:12am 14.0 4.9 8.6 70 2.7 SW 46 65 25 35 1017.5 1017.5 0.0
18/11:00am 14.6 5.6 9.0 69 2.9 SW 46 61 25 33 1017.5 1017.5 0.0

Latest Capital City Observations: Canberra | Sydney | Melbourne | Brisbane | Adelaide | Perth | Hobart | Darwin

Other Formats:

Comma delimited format used in spreadsheet applications
http://www.bom.gov.au/fwo/IDN60903/IDN60903.94939.axf

JavaScript Object Notation format (JSON) in row-major order
http://www.bom.gov.au/fwo/IDN60903/IDN60903.94939.json